createdAt,value
2022-08-19T04:31:14.706Z,20.200001
2022-08-19T04:33:30.207Z,26.6
2022-08-19T04:35:44.564Z,24.5
2022-08-19T04:37:58.932Z,24.5
2022-08-19T04:40:13.483Z,23.799999
2022-08-19T04:42:30.483Z,23.6
2022-08-19T04:44:47.305Z,22.1
2022-08-19T04:47:01.714Z,21.4
2022-08-19T04:49:17.848Z,22.5
2022-08-19T04:51:33.277Z,22.5
2022-08-19T04:53:47.725Z,21.700001
2022-08-19T04:56:02.113Z,22.1
2022-08-19T04:58:17.511Z,18.9
2022-08-19T05:00:33.010Z,20.1
2022-08-19T05:02:48.342Z,20.299999
2022-08-19T05:05:02.786Z,20.9
2022-08-19T05:07:17.233Z,21.200001
2022-08-19T05:09:55.594Z,20.9
2022-08-19T05:11:49.782Z,19.9
2022-08-19T05:14:04.138Z,19.9
2022-08-19T05:16:18.584Z,20.299999
2022-08-19T05:18:33.048Z,21.799999
2022-08-19T05:20:47.495Z,22.4
2022-08-19T05:23:03.839Z,23.200001
2022-08-19T05:25:19.379Z,25.200001
2022-08-19T05:27:33.801Z,24.200001
2022-08-19T05:29:48.181Z,27.200001
2022-08-19T05:32:02.636Z,27.299999
2022-08-19T05:34:20.109Z,25.9
2022-08-19T05:36:34.568Z,27.5
2022-08-19T05:38:48.959Z,26.1
2022-08-19T05:41:03.358Z,31.299999
2022-08-19T05:43:17.990Z,29.700001
2022-08-19T05:45:32.390Z,26.799999
2022-08-19T05:47:46.760Z,33.799999
2022-08-19T05:50:02.127Z,33.200001
2022-08-19T05:52:18.755Z,32.5
2022-08-19T05:54:32.868Z,32.799999
2022-08-19T05:56:47.197Z,32.099998
2022-08-19T05:59:01.624Z,32.099998
2022-08-19T06:01:16.121Z,32.799999
2022-08-19T06:03:30.485Z,31.200001
2022-08-19T06:05:49.688Z,32.400002
2022-08-19T06:08:02.258Z,35
2022-08-19T06:10:16.663Z,35.5
2022-08-19T06:12:31.030Z,35.299999
2022-08-19T06:14:45.387Z,34
2022-08-19T06:17:04.919Z,39.299999
2022-08-19T06:19:16.206Z,43
2022-08-19T06:21:30.682Z,41.799999
2022-08-19T06:23:45.024Z,45
2022-08-19T06:25:59.364Z,42.299999
2022-08-19T06:28:15.912Z,44.900002
2022-08-19T06:30:30.136Z,45.700001
2022-08-19T06:32:44.697Z,44.299999
2022-08-19T06:34:59.113Z,42.400002
2022-08-19T06:37:13.778Z,40.599998
2022-08-19T06:39:28.193Z,39.400002
2022-08-19T06:41:48.875Z,40
2022-08-19T06:44:00.098Z,38.599998
2022-08-19T06:46:15.429Z,41.700001
2022-08-19T06:48:29.855Z,41.700001
2022-08-19T06:50:44.224Z,45.900002
2022-08-19T06:53:01.360Z,46.700001
2022-08-19T06:55:14.993Z,43.799999
2022-08-19T06:57:29.546Z,45.5
2022-08-19T06:59:43.883Z,47.5
2022-08-19T07:01:58.239Z,41.599998
2022-08-19T07:04:13.597Z,43.099998
2022-08-19T07:06:43.256Z,46.5
2022-08-19T07:08:45.303Z,45.400002
2022-08-19T07:11:00.757Z,44.400002
2022-08-19T07:13:16.128Z,46.299999
2022-08-19T07:15:30.493Z,44.5
2022-08-19T07:17:48.021Z,46.099998
2022-08-19T07:20:05.328Z,46
2022-08-19T07:22:19.705Z,48
2022-08-19T07:24:35.196Z,48.900002
2022-08-19T07:26:52.099Z,50.5
2022-08-19T07:29:06.033Z,49.299999
2022-08-19T07:31:23.853Z,50.799999
2022-08-19T07:33:37.780Z,51.799999
2022-08-19T07:35:52.118Z,48.900002
2022-08-19T07:38:06.474Z,48.900002
2022-08-19T07:40:20.851Z,46
2022-08-19T07:42:35.256Z,45.599998
2022-08-19T07:44:51.598Z,43.299999
2022-08-19T07:47:06.956Z,41.400002
2022-08-19T07:49:22.375Z,41.299999
2022-08-19T07:51:37.695Z,39.599998
2022-08-19T07:53:52.063Z,39.200001
2022-08-19T07:56:06.400Z,40.5
2022-08-19T07:58:20.844Z,39.299999
2022-08-19T08:00:35.220Z,39.799999
2022-08-19T08:02:50.579Z,39.299999
2022-08-19T08:05:04.913Z,39.400002
2022-08-19T08:07:19.464Z,40.5
2022-08-19T08:09:34.803Z,43.299999
2022-08-19T08:11:50.150Z,45.400002
2022-08-19T08:14:05.535Z,46.400002
2022-08-19T08:16:19.980Z,45.099998
2022-08-19T08:18:34.465Z,45.599998
2022-08-19T08:20:48.841Z,47.599998
2022-08-19T08:23:03.384Z,46.299999
2022-08-19T08:25:17.809Z,43.200001
2022-08-19T08:27:34.205Z,48.299999
2022-08-19T08:29:48.620Z,47.900002
2022-08-19T08:32:02.960Z,46.900002
2022-08-19T08:34:17.424Z,45.799999
2022-08-19T08:36:31.803Z,49.099998
2022-08-19T08:38:46.348Z,47.400002
2022-08-19T08:41:00.787Z,46.099998
2022-08-19T08:43:16.630Z,46.700001
2022-08-19T08:45:33.109Z,45.5
2022-08-19T08:47:49.457Z,46.700001
2022-08-19T08:50:05.797Z,46.5
2022-08-19T08:52:20.092Z,47.900002
2022-08-19T08:54:36.703Z,47.5
2022-08-19T08:56:51.920Z,47.099998
2022-08-19T08:59:06.265Z,46.700001
2022-08-19T09:01:20.714Z,45
2022-08-19T09:03:36.153Z,46.700001
2022-08-19T09:05:52.554Z,45.400002
2022-08-19T09:08:08.001Z,45.299999
2022-08-19T09:10:25.787Z,44.200001
2022-08-19T09:12:40.709Z,44.599998
2022-08-19T09:14:56.902Z,45
2022-08-19T09:17:11.283Z,44.700001
2022-08-19T09:19:25.860Z,42.299999
2022-08-19T09:21:42.306Z,42.400002
2022-08-19T09:23:57.698Z,41
2022-08-19T09:26:13.151Z,36.299999
2022-08-19T09:28:28.518Z,36.200001
2022-08-19T09:30:43.152Z,37.5
2022-08-19T09:32:58.514Z,37.299999
2022-08-19T09:35:13.850Z,37.400002
2022-08-19T09:37:28.216Z,37.799999
2022-08-19T09:39:43.657Z,37.299999
2022-08-19T09:41:58.935Z,36.400002
2022-08-19T09:44:13.420Z,36
2022-08-19T09:46:27.681Z,35
2022-08-19T09:48:42.100Z,39.700001
2022-08-19T09:50:56.587Z,38.599998
2022-08-19T09:53:11.022Z,35.900002
2022-08-19T09:55:31.446Z,35.799999
2022-08-19T09:57:42.361Z,35.200001
2022-08-19T09:59:56.858Z,33.900002
2022-08-19T10:02:12.333Z,33.299999
2022-08-19T10:04:26.729Z,32.900002
2022-08-19T10:06:44.012Z,31
2022-08-19T10:08:59.431Z,30.799999
2022-08-19T10:11:27.673Z,29.299999
2022-08-19T10:13:31.140Z,30.6
2022-08-19T10:15:49.355Z,26.799999
2022-08-19T10:18:02.816Z,27.799999
2022-08-19T10:20:17.240Z,27
2022-08-19T10:22:32.613Z,26.299999
2022-08-19T10:24:47.950Z,25.6
2022-08-19T10:27:02.368Z,25.299999
2022-08-19T10:29:31.746Z,25.799999
2022-08-19T10:32:01.526Z,25.4
2022-08-19T10:33:54.046Z,25.6
2022-08-19T10:36:08.169Z,26
2022-08-19T10:38:31.563Z,25.700001
2022-08-19T10:40:39.962Z,25.6
2022-08-19T10:42:54.359Z,26.5
2022-08-19T10:45:08.713Z,26.6
2022-08-19T10:47:25.618Z,26.4
2022-08-19T10:49:40.439Z,27.200001
2022-08-19T10:51:55.098Z,25.9
2022-08-19T10:54:12.491Z,26.6
2022-08-19T10:56:26.857Z,27.6
2022-08-19T10:58:41.233Z,31.5
2022-08-19T11:00:56.908Z,33.5
2022-08-19T11:03:11.432Z,30.5
2022-08-19T11:05:25.926Z,30
2022-08-19T11:07:40.328Z,28.9
2022-08-19T11:09:54.733Z,27.1
2022-08-19T11:12:09.099Z,27.6
2022-08-19T11:14:23.428Z,27.4
2022-08-19T11:16:38.792Z,27.5
2022-08-19T11:18:53.183Z,27.6
2022-08-19T11:21:08.570Z,27.799999
2022-08-19T11:23:24.088Z,29.200001
2022-08-19T11:25:40.168Z,32.5
2022-08-19T11:27:54.564Z,31.700001
2022-08-19T11:30:12.654Z,29.299999
2022-08-19T11:32:26.274Z,28.4
2022-08-19T11:34:40.819Z,28.1
2022-08-19T11:36:56.000Z,33.299999
2022-08-19T11:39:10.338Z,29.799999
2022-08-19T11:41:24.858Z,30.299999
2022-08-19T11:43:40.277Z,26
2022-08-19T11:45:54.732Z,25.6
2022-08-19T11:48:09.247Z,24.200001
2022-08-19T11:50:23.692Z,22.6
2022-08-19T11:52:38.068Z,20.6
2022-08-19T11:54:52.416Z,20
2022-08-19T11:57:06.803Z,19.4
2022-08-19T11:59:21.211Z,17.6
2022-08-19T12:01:35.631Z,19.299999
2022-08-19T12:03:50.096Z,15.5
2022-08-19T12:06:03.365Z,13.6
2022-08-19T12:08:17.727Z,12
2022-08-19T12:10:32.090Z,12.7
2022-08-19T12:12:54.715Z,10.9
2022-08-19T12:15:04.520Z,11
2022-08-19T12:17:18.926Z,10.3
2022-08-19T12:19:33.266Z,10.4
2022-08-19T12:21:47.762Z,9.5
2022-08-19T12:24:03.123Z,9.1
2022-08-19T12:26:17.580Z,8.9
2022-08-19T12:28:32.780Z,8.3
2022-08-19T12:30:47.156Z,6.9
2022-08-19T12:33:01.525Z,6
2022-08-19T12:35:15.913Z,5.5
2022-08-19T12:37:30.317Z,5.1
2022-08-19T12:39:44.743Z,5.2
2022-08-19T12:41:59.106Z,4.5
2022-08-19T12:44:15.523Z,5.4
2022-08-19T12:46:29.934Z,4.9
2022-08-19T12:48:45.325Z,4.5
2022-08-19T12:50:59.685Z,4.6
2022-08-19T12:53:14.055Z,3.8
2022-08-19T12:55:28.418Z,4.1
2022-08-19T12:57:42.796Z,4.1
2022-08-19T12:59:58.170Z,3.6
2022-08-19T13:02:13.563Z,3.5
2022-08-19T13:04:27.925Z,3.9
2022-08-19T13:06:42.354Z,3.5
2022-08-19T13:08:59.724Z,3.9
2022-08-19T13:11:14.034Z,3.2
2022-08-19T13:13:28.407Z,3.2
2022-08-19T13:15:44.006Z,3.2
2022-08-19T13:17:58.350Z,3.5
2022-08-19T13:20:12.743Z,3.1
2022-08-19T13:22:27.195Z,2.4
2022-08-19T13:24:47.027Z,2.1
2022-08-19T13:26:59.122Z,2
2022-08-19T13:29:13.597Z,1.7
2022-08-19T13:31:27.929Z,1.9
2022-08-19T13:33:42.344Z,2.1
2022-08-19T13:35:56.678Z,2.9
2022-08-19T13:38:13.067Z,2.6
2022-08-19T13:40:27.467Z,2.2
2022-08-19T13:42:41.839Z,2.8
2022-08-19T13:44:56.204Z,2.6
2022-08-19T13:47:10.574Z,3.2
2022-08-19T13:49:25.010Z,3.1
2022-08-19T13:51:39.364Z,2.4
2022-08-19T13:53:54.908Z,2.4
2022-08-19T13:56:09.280Z,3.2
2022-08-19T13:58:23.694Z,2.9
2022-08-19T14:00:38.149Z,3.2
2022-08-19T14:02:52.496Z,2.9
2022-08-19T14:05:06.853Z,2.6
2022-08-19T14:07:21.261Z,2.7
2022-08-19T14:09:35.702Z,3.1
2022-08-19T14:11:51.050Z,2.6
2022-08-19T14:14:06.123Z,3
2022-08-19T14:16:20.580Z,3.5
2022-08-19T14:18:34.984Z,3.3
2022-08-19T14:20:49.583Z,3
2022-08-19T14:23:04.040Z,2.5
2022-08-19T14:25:18.823Z,2.8
2022-08-19T14:27:33.224Z,3.2
2022-08-19T14:29:47.768Z,3.4
2022-08-19T14:32:02.099Z,3.4
2022-08-19T14:34:16.477Z,3.5
2022-08-19T14:36:31.175Z,3.1
2022-08-19T14:38:45.538Z,3.3
2022-08-19T14:40:59.929Z,2.9
2022-08-19T14:43:15.401Z,3.2
2022-08-19T14:45:30.766Z,3.5
2022-08-19T14:47:47.318Z,3.3
2022-08-19T14:50:03.326Z,3.1
2022-08-19T14:52:17.943Z,3
2022-08-19T14:54:32.296Z,3.4
2022-08-19T14:56:46.752Z,3.3
2022-08-19T14:59:01.159Z,4
2022-08-19T15:01:15.574Z,3.8
2022-08-19T15:03:30.808Z,3.9
2022-08-19T15:05:45.304Z,3.5
2022-08-19T15:07:59.716Z,4.2
2022-08-19T15:10:14.035Z,3
2022-08-19T15:12:28.548Z,4.1
2022-08-19T15:14:43.028Z,4.2
2022-08-19T15:16:57.492Z,4.8
2022-08-19T15:19:11.917Z,5.4
2022-08-19T15:21:28.364Z,4.4
2022-08-19T15:23:45.485Z,4.4
2022-08-19T15:25:59.165Z,4.5
2022-08-19T15:28:13.558Z,3.9
2022-08-19T15:30:28.021Z,3.7
2022-08-19T15:32:45.184Z,3.4
2022-08-19T15:34:57.757Z,3.4
2022-08-19T15:37:12.798Z,3.1
2022-08-19T15:39:27.262Z,3
2022-08-19T15:41:42.645Z,2.9
2022-08-19T15:43:58.048Z,2.9
2022-08-19T15:46:17.058Z,2.9
2022-08-19T15:48:29.832Z,2.4
2022-08-19T15:50:44.216Z,2.9
2022-08-19T15:52:58.962Z,2.7
2022-08-19T15:55:16.062Z,2.3
2022-08-19T15:57:31.529Z,2.6
2022-08-19T15:59:47.911Z,2.6
2022-08-19T16:02:02.320Z,2.5
2022-08-19T16:04:17.789Z,2.4
2022-08-19T16:06:33.212Z,2.6
2022-08-19T16:08:49.591Z,2.6
2022-08-19T16:11:03.991Z,2.7
2022-08-19T16:13:18.442Z,3
2022-08-19T16:15:32.942Z,2.6
2022-08-19T16:17:56.358Z,2.6
2022-08-19T16:20:04.750Z,2.6
2022-08-19T16:22:19.129Z,3.1
2022-08-19T16:24:33.515Z,3.2
2022-08-19T16:26:47.891Z,3.3
2022-08-19T16:29:02.449Z,3.6
2022-08-19T16:31:16.926Z,3.1
2022-08-19T16:33:31.357Z,3.3
2022-08-19T16:35:47.684Z,2.9
2022-08-19T16:38:03.065Z,2.9
2022-08-19T16:40:18.636Z,2.7
2022-08-19T16:42:33.082Z,2.7
2022-08-19T16:44:47.593Z,2.3
2022-08-19T16:47:01.937Z,2.8
2022-08-19T16:49:21.014Z,2.6
2022-08-19T16:51:33.970Z,2.5
2022-08-19T16:53:48.361Z,2.4
2022-08-19T16:56:02.754Z,2.3
2022-08-19T16:58:17.111Z,2
2022-08-19T17:00:31.672Z,1.8
2022-08-19T17:02:46.034Z,2.1
2022-08-19T17:05:01.467Z,2.1
2022-08-19T17:07:16.841Z,1.9
2022-08-19T17:09:33.281Z,1.9
2022-08-19T17:11:47.754Z,2.1
2022-08-19T17:14:02.208Z,2
2022-08-19T17:16:16.743Z,2.1
2022-08-19T17:18:32.193Z,1.9
2022-08-19T17:20:46.449Z,2
2022-08-19T17:23:00.824Z,2.2
2022-08-19T17:25:16.228Z,1.9
2022-08-19T17:27:32.759Z,2.1
2022-08-19T17:29:47.855Z,1.7
2022-08-19T17:32:02.254Z,2
2022-08-19T17:34:16.695Z,2
2022-08-19T17:36:31.591Z,2.2
2022-08-19T17:38:45.985Z,2
2022-08-19T17:41:00.379Z,2
2022-08-19T17:43:14.755Z,2
2022-08-19T17:45:29.175Z,2.4
2022-08-19T17:47:43.502Z,2.1
2022-08-19T17:49:59.169Z,2.3
2022-08-19T17:52:13.613Z,2.4
2022-08-19T17:54:33.292Z,2.7
2022-08-19T17:56:45.499Z,2.5
2022-08-19T17:59:01.931Z,3.4
2022-08-19T18:01:17.265Z,3.5
2022-08-19T18:03:32.605Z,3.9
2022-08-19T18:05:47.393Z,4.1
2022-08-19T18:08:01.769Z,4
2022-08-19T18:10:16.132Z,3.8
2022-08-19T18:12:30.496Z,3.5
2022-08-19T18:14:45.058Z,3
2022-08-19T18:16:59.501Z,2.4
2022-08-19T18:19:14.011Z,2.6
2022-08-19T18:21:28.488Z,2.4
2022-08-19T18:23:46.054Z,2.5
